sensor_id;sensor_type;location;lat;lon;timestamp;P1;durP1;ratioP1;P2;durP2;ratioP2
18867;SDS011;9563;49.240;9.088;2022-11-20T00:01:27;19.80;;;9.10;;
18867;SDS011;9563;49.240;9.088;2022-11-20T00:03:55;16.33;;;8.37;;
18867;SDS011;9563;49.240;9.088;2022-11-20T00:06:23;14.67;;;8.07;;
18867;SDS011;9563;49.240;9.088;2022-11-20T00:08:53;16.87;;;7.83;;
18867;SDS011;9563;49.240;9.088;2022-11-20T00:11:22;16.83;;;8.13;;
18867;SDS011;9563;49.240;9.088;2022-11-20T00:13:51;16.60;;;7.97;;
18867;SDS011;9563;49.240;9.088;2022-11-20T00:16:20;18.97;;;8.93;;
18867;SDS011;9563;49.240;9.088;2022-11-20T00:18:49;17.57;;;9.40;;
18867;SDS011;9563;49.240;9.088;2022-11-20T00:21:17;18.87;;;9.27;;
18867;SDS011;9563;49.240;9.088;2022-11-20T00:23:44;18.37;;;9.57;;
18867;SDS011;9563;49.240;9.088;2022-11-20T00:26:14;19.03;;;9.00;;
18867;SDS011;9563;49.240;9.088;2022-11-20T00:28:42;19.77;;;9.23;;
18867;SDS011;9563;49.240;9.088;2022-11-20T00:31:12;18.37;;;8.87;;
18867;SDS011;9563;49.240;9.088;2022-11-20T00:33:40;16.13;;;8.07;;
18867;SDS011;9563;49.240;9.088;2022-11-20T00:36:07;18.53;;;9.33;;
18867;SDS011;9563;49.240;9.088;2022-11-20T00:38:36;17.93;;;8.93;;
18867;SDS011;9563;49.240;9.088;2022-11-20T00:41:04;18.37;;;9.30;;
18867;SDS011;9563;49.240;9.088;2022-11-20T00:43:35;18.30;;;9.37;;
18867;SDS011;9563;49.240;9.088;2022-11-20T00:46:03;20.87;;;10.27;;
18867;SDS011;9563;49.240;9.088;2022-11-20T00:48:32;17.87;;;9.63;;
18867;SDS011;9563;49.240;9.088;2022-11-20T00:50:59;18.80;;;9.53;;
18867;SDS011;9563;49.240;9.088;2022-11-20T00:53:26;20.37;;;9.97;;
18867;SDS011;9563;49.240;9.088;2022-11-20T00:55:54;19.73;;;10.20;;
18867;SDS011;9563;49.240;9.088;2022-11-20T00:58:22;18.10;;;10.07;;
18867;SDS011;9563;49.240;9.088;2022-11-20T01:00:51;18.07;;;9.40;;
18867;SDS011;9563;49.240;9.088;2022-11-20T01:03:18;20.63;;;10.00;;
18867;SDS011;9563;49.240;9.088;2022-11-20T01:05:45;18.63;;;8.47;;
18867;SDS011;9563;49.240;9.088;2022-11-20T01:08:12;17.90;;;9.47;;
18867;SDS011;9563;49.240;9.088;2022-11-20T01:10:39;17.23;;;9.40;;
18867;SDS011;9563;49.240;9.088;2022-11-20T01:13:06;15.93;;;8.87;;
18867;SDS011;9563;49.240;9.088;2022-11-20T01:15:51;18.43;;;9.70;;
18867;SDS011;9563;49.240;9.088;2022-11-20T01:18:18;18.63;;;10.03;;
18867;SDS011;9563;49.240;9.088;2022-11-20T01:20:45;19.10;;;9.67;;
18867;SDS011;9563;49.240;9.088;2022-11-20T01:23:12;19.40;;;10.00;;
18867;SDS011;9563;49.240;9.088;2022-11-20T01:25:39;17.63;;;9.60;;
18867;SDS011;9563;49.240;9.088;2022-11-20T01:28:06;17.50;;;9.17;;
18867;SDS011;9563;49.240;9.088;2022-11-20T01:30:33;17.97;;;9.40;;
18867;SDS011;9563;49.240;9.088;2022-11-20T01:33:01;19.47;;;9.90;;
18867;SDS011;9563;49.240;9.088;2022-11-20T01:35:28;18.30;;;9.83;;
18867;SDS011;9563;49.240;9.088;2022-11-20T01:37:55;20.40;;;10.03;;
18867;SDS011;9563;49.240;9.088;2022-11-20T01:40:22;21.40;;;10.43;;
18867;SDS011;9563;49.240;9.088;2022-11-20T01:42:52;20.60;;;10.63;;
18867;SDS011;9563;49.240;9.088;2022-11-20T01:48:33;18.40;;;9.70;;
18867;SDS011;9563;49.240;9.088;2022-11-20T01:51:05;18.20;;;9.70;;
18867;SDS011;9563;49.240;9.088;2022-11-20T01:53:38;19.57;;;10.07;;
18867;SDS011;9563;49.240;9.088;2022-11-20T01:56:06;18.87;;;9.70;;
18867;SDS011;9563;49.240;9.088;2022-11-20T01:58:37;17.40;;;8.97;;
18867;SDS011;9563;49.240;9.088;2022-11-20T02:01:08;20.33;;;9.87;;
18867;SDS011;9563;49.240;9.088;2022-11-20T02:03:36;18.97;;;9.27;;
18867;SDS011;9563;49.240;9.088;2022-11-20T02:06:05;17.83;;;9.47;;
18867;SDS011;9563;49.240;9.088;2022-11-20T02:08:38;17.07;;;9.37;;
18867;SDS011;9563;49.240;9.088;2022-11-20T02:11:05;20.53;;;10.07;;
18867;SDS011;9563;49.240;9.088;2022-11-20T02:13:33;17.30;;;9.53;;
18867;SDS011;9563;49.240;9.088;2022-11-20T02:16:10;19.03;;;9.73;;
18867;SDS011;9563;49.240;9.088;2022-11-20T02:18:47;20.37;;;9.50;;
18867;SDS011;9563;49.240;9.088;2022-11-20T02:21:17;18.87;;;9.73;;
18867;SDS011;9563;49.240;9.088;2022-11-20T02:24:07;17.67;;;9.53;;
18867;SDS011;9563;49.240;9.088;2022-11-20T02:26:39;19.70;;;9.97;;
18867;SDS011;9563;49.240;9.088;2022-11-20T02:29:11;19.53;;;9.97;;
18867;SDS011;9563;49.240;9.088;2022-11-20T02:31:40;18.63;;;9.70;;
18867;SDS011;9563;49.240;9.088;2022-11-20T02:34:08;22.87;;;11.83;;
18867;SDS011;9563;49.240;9.088;2022-11-20T02:36:35;20.37;;;10.10;;
18867;SDS011;9563;49.240;9.088;2022-11-20T02:39:04;21.07;;;10.13;;
18867;SDS011;9563;49.240;9.088;2022-11-20T02:41:34;21.17;;;10.37;;
18867;SDS011;9563;49.240;9.088;2022-11-20T02:44:03;20.53;;;10.00;;
18867;SDS011;9563;49.240;9.088;2022-11-20T02:46:31;20.73;;;10.03;;
18867;SDS011;9563;49.240;9.088;2022-11-20T02:48:59;19.73;;;9.90;;
18867;SDS011;9563;49.240;9.088;2022-11-20T02:51:27;22.37;;;10.23;;
18867;SDS011;9563;49.240;9.088;2022-11-20T02:53:54;20.50;;;10.27;;
18867;SDS011;9563;49.240;9.088;2022-11-20T02:56:22;22.40;;;10.87;;
18867;SDS011;9563;49.240;9.088;2022-11-20T02:58:49;21.93;;;10.30;;
18867;SDS011;9563;49.240;9.088;2022-11-20T03:01:16;21.80;;;10.47;;
18867;SDS011;9563;49.240;9.088;2022-11-20T03:03:43;20.53;;;10.97;;
18867;SDS011;9563;49.240;9.088;2022-11-20T03:06:10;25.27;;;10.70;;
18867;SDS011;9563;49.240;9.088;2022-11-20T03:08:37;20.50;;;10.23;;
18867;SDS011;9563;49.240;9.088;2022-11-20T03:11:05;24.23;;;10.73;;
18867;SDS011;9563;49.240;9.088;2022-11-20T03:13:34;23.37;;;10.80;;
18867;SDS011;9563;49.240;9.088;2022-11-20T03:16:06;25.83;;;10.97;;
18867;SDS011;9563;49.240;9.088;2022-11-20T03:18:37;21.43;;;10.70;;
18867;SDS011;9563;49.240;9.088;2022-11-20T03:21:05;23.17;;;11.40;;
18867;SDS011;9563;49.240;9.088;2022-11-20T03:23:32;22.57;;;10.43;;
18867;SDS011;9563;49.240;9.088;2022-11-20T03:26:07;21.93;;;11.37;;
18867;SDS011;9563;49.240;9.088;2022-11-20T03:28:39;23.73;;;11.10;;
18867;SDS011;9563;49.240;9.088;2022-11-20T03:31:10;21.43;;;11.00;;
18867;SDS011;9563;49.240;9.088;2022-11-20T03:33:39;25.73;;;11.10;;
18867;SDS011;9563;49.240;9.088;2022-11-20T03:36:07;29.20;;;11.83;;
18867;SDS011;9563;49.240;9.088;2022-11-20T03:38:36;24.47;;;11.67;;
18867;SDS011;9563;49.240;9.088;2022-11-20T03:41:04;23.57;;;11.37;;
18867;SDS011;9563;49.240;9.088;2022-11-20T03:43:32;25.00;;;11.67;;
18867;SDS011;9563;49.240;9.088;2022-11-20T03:46:01;24.47;;;11.03;;
18867;SDS011;9563;49.240;9.088;2022-11-20T03:48:28;26.63;;;11.63;;
18867;SDS011;9563;49.240;9.088;2022-11-20T03:51:06;25.03;;;11.87;;
18867;SDS011;9563;49.240;9.088;2022-11-20T03:53:34;26.00;;;11.43;;
18867;SDS011;9563;49.240;9.088;2022-11-20T03:56:01;28.73;;;12.30;;
18867;SDS011;9563;49.240;9.088;2022-11-20T03:58:28;23.57;;;10.97;;
18867;SDS011;9563;49.240;9.088;2022-11-20T04:00:55;21.17;;;10.80;;
18867;SDS011;9563;49.240;9.088;2022-11-20T04:03:24;23.57;;;12.03;;
18867;SDS011;9563;49.240;9.088;2022-11-20T04:05:52;26.60;;;11.80;;
18867;SDS011;9563;49.240;9.088;2022-11-20T04:08:18;27.17;;;12.27;;
18867;SDS011;9563;49.240;9.088;2022-11-20T04:10:45;24.47;;;11.23;;
18867;SDS011;9563;49.240;9.088;2022-11-20T04:13:12;23.60;;;11.50;;
18867;SDS011;9563;49.240;9.088;2022-11-20T04:15:39;21.77;;;10.63;;
18867;SDS011;9563;49.240;9.088;2022-11-20T04:18:06;28.87;;;12.13;;
18867;SDS011;9563;49.240;9.088;2022-11-20T04:20:34;23.53;;;11.20;;
18867;SDS011;9563;49.240;9.088;2022-11-20T04:23:02;24.00;;;10.50;;
18867;SDS011;9563;49.240;9.088;2022-11-20T04:25:28;23.47;;;10.80;;
18867;SDS011;9563;49.240;9.088;2022-11-20T04:27:55;22.57;;;10.80;;
18867;SDS011;9563;49.240;9.088;2022-11-20T04:30:22;21.77;;;11.10;;
18867;SDS011;9563;49.240;9.088;2022-11-20T04:32:49;21.23;;;10.83;;
18867;SDS011;9563;49.240;9.088;2022-11-20T04:35:15;20.27;;;9.90;;
18867;SDS011;9563;49.240;9.088;2022-11-20T04:37:44;24.30;;;11.27;;
18867;SDS011;9563;49.240;9.088;2022-11-20T04:40:11;16.53;;;9.03;;
18867;SDS011;9563;49.240;9.088;2022-11-20T04:42:38;20.47;;;9.83;;
18867;SDS011;9563;49.240;9.088;2022-11-20T04:45:05;16.67;;;9.10;;
18867;SDS011;9563;49.240;9.088;2022-11-20T04:47:32;16.57;;;8.77;;
18867;SDS011;9563;49.240;9.088;2022-11-20T04:49:59;15.27;;;8.03;;
18867;SDS011;9563;49.240;9.088;2022-11-20T04:52:26;14.70;;;8.00;;
18867;SDS011;9563;49.240;9.088;2022-11-20T04:54:55;14.37;;;7.43;;
18867;SDS011;9563;49.240;9.088;2022-11-20T04:57:22;15.30;;;8.00;;
18867;SDS011;9563;49.240;9.088;2022-11-20T04:59:49;13.40;;;7.40;;
18867;SDS011;9563;49.240;9.088;2022-11-20T05:02:16;13.00;;;6.83;;
18867;SDS011;9563;49.240;9.088;2022-11-20T05:04:43;15.07;;;7.63;;
18867;SDS011;9563;49.240;9.088;2022-11-20T05:07:10;15.37;;;7.87;;
18867;SDS011;9563;49.240;9.088;2022-11-20T05:09:37;13.80;;;7.80;;
18867;SDS011;9563;49.240;9.088;2022-11-20T05:12:06;11.93;;;6.73;;
18867;SDS011;9563;49.240;9.088;2022-11-20T05:14:33;13.40;;;6.90;;
18867;SDS011;9563;49.240;9.088;2022-11-20T05:17:00;13.30;;;7.37;;
18867;SDS011;9563;49.240;9.088;2022-11-20T05:19:28;13.37;;;7.40;;
18867;SDS011;9563;49.240;9.088;2022-11-20T05:21:54;13.00;;;7.00;;
18867;SDS011;9563;49.240;9.088;2022-11-20T05:24:21;11.43;;;6.47;;
18867;SDS011;9563;49.240;9.088;2022-11-20T05:26:48;12.30;;;6.80;;
18867;SDS011;9563;49.240;9.088;2022-11-20T05:29:16;13.30;;;7.17;;
18867;SDS011;9563;49.240;9.088;2022-11-20T05:31:43;10.13;;;6.13;;
18867;SDS011;9563;49.240;9.088;2022-11-20T05:34:09;11.03;;;6.50;;
18867;SDS011;9563;49.240;9.088;2022-11-20T05:36:36;10.13;;;6.23;;
18867;SDS011;9563;49.240;9.088;2022-11-20T05:39:03;11.23;;;6.30;;
18867;SDS011;9563;49.240;9.088;2022-11-20T05:41:30;11.67;;;6.60;;
18867;SDS011;9563;49.240;9.088;2022-11-20T05:43:58;8.63;;;5.60;;
18867;SDS011;9563;49.240;9.088;2022-11-20T05:46:27;10.17;;;5.67;;
18867;SDS011;9563;49.240;9.088;2022-11-20T05:48:54;9.50;;;5.53;;
18867;SDS011;9563;49.240;9.088;2022-11-20T05:51:22;10.33;;;5.70;;
18867;SDS011;9563;49.240;9.088;2022-11-20T05:53:49;9.20;;;5.20;;
18867;SDS011;9563;49.240;9.088;2022-11-20T05:56:16;8.80;;;5.60;;
18867;SDS011;9563;49.240;9.088;2022-11-20T05:58:45;11.07;;;6.07;;
18867;SDS011;9563;49.240;9.088;2022-11-20T06:01:13;11.53;;;6.07;;
18867;SDS011;9563;49.240;9.088;2022-11-20T06:03:43;12.03;;;6.93;;
18867;SDS011;9563;49.240;9.088;2022-11-20T06:06:12;9.70;;;5.90;;
18867;SDS011;9563;49.240;9.088;2022-11-20T06:08:40;11.20;;;7.03;;
18867;SDS011;9563;49.240;9.088;2022-11-20T06:11:07;11.23;;;6.17;;
18867;SDS011;9563;49.240;9.088;2022-11-20T06:13:35;10.83;;;7.10;;
18867;SDS011;9563;49.240;9.088;2022-11-20T06:16:03;10.87;;;6.57;;
18867;SDS011;9563;49.240;9.088;2022-11-20T06:18:30;9.97;;;6.30;;
18867;SDS011;9563;49.240;9.088;2022-11-20T06:21:03;10.50;;;6.30;;
18867;SDS011;9563;49.240;9.088;2022-11-20T06:23:32;11.33;;;6.80;;
18867;SDS011;9563;49.240;9.088;2022-11-20T06:26:01;10.63;;;6.47;;
18867;SDS011;9563;49.240;9.088;2022-11-20T06:28:28;9.80;;;5.87;;
18867;SDS011;9563;49.240;9.088;2022-11-20T06:30:55;28.33;;;8.40;;
18867;SDS011;9563;49.240;9.088;2022-11-20T06:33:22;10.23;;;6.37;;
18867;SDS011;9563;49.240;9.088;2022-11-20T06:35:49;10.80;;;6.73;;
18867;SDS011;9563;49.240;9.088;2022-11-20T06:38:17;10.20;;;6.20;;
18867;SDS011;9563;49.240;9.088;2022-11-20T06:40:44;10.77;;;6.60;;
18867;SDS011;9563;49.240;9.088;2022-11-20T06:43:11;10.83;;;6.37;;
18867;SDS011;9563;49.240;9.088;2022-11-20T06:45:38;13.27;;;6.97;;
18867;SDS011;9563;49.240;9.088;2022-11-20T06:48:05;13.60;;;6.90;;
18867;SDS011;9563;49.240;9.088;2022-11-20T06:50:31;13.77;;;6.27;;
18867;SDS011;9563;49.240;9.088;2022-11-20T06:53:00;12.30;;;6.30;;
18867;SDS011;9563;49.240;9.088;2022-11-20T06:55:30;11.30;;;6.33;;
18867;SDS011;9563;49.240;9.088;2022-11-20T06:57:57;12.47;;;7.50;;
18867;SDS011;9563;49.240;9.088;2022-11-20T07:00:24;11.53;;;6.83;;
18867;SDS011;9563;49.240;9.088;2022-11-20T07:02:51;13.80;;;6.87;;
18867;SDS011;9563;49.240;9.088;2022-11-20T07:05:18;12.00;;;6.07;;
18867;SDS011;9563;49.240;9.088;2022-11-20T07:07:45;14.80;;;6.53;;
18867;SDS011;9563;49.240;9.088;2022-11-20T07:10:12;8.93;;;5.87;;
18867;SDS011;9563;49.240;9.088;2022-11-20T07:12:40;8.87;;;5.93;;
18867;SDS011;9563;49.240;9.088;2022-11-20T07:15:07;8.27;;;4.87;;
18867;SDS011;9563;49.240;9.088;2022-11-20T07:17:34;9.90;;;5.97;;
18867;SDS011;9563;49.240;9.088;2022-11-20T07:20:01;8.43;;;5.90;;
18867;SDS011;9563;49.240;9.088;2022-11-20T07:22:28;9.80;;;5.60;;
18867;SDS011;9563;49.240;9.088;2022-11-20T07:24:55;8.70;;;5.20;;
18867;SDS011;9563;49.240;9.088;2022-11-20T07:27:22;12.67;;;5.80;;
18867;SDS011;9563;49.240;9.088;2022-11-20T07:29:50;11.27;;;5.93;;
18867;SDS011;9563;49.240;9.088;2022-11-20T07:32:17;9.83;;;6.20;;
18867;SDS011;9563;49.240;9.088;2022-11-20T07:34:44;10.53;;;6.30;;
18867;SDS011;9563;49.240;9.088;2022-11-20T07:37:11;10.70;;;6.30;;
18867;SDS011;9563;49.240;9.088;2022-11-20T07:39:38;13.30;;;6.50;;
18867;SDS011;9563;49.240;9.088;2022-11-20T07:42:05;12.40;;;6.60;;
18867;SDS011;9563;49.240;9.088;2022-11-20T07:44:33;12.63;;;6.43;;
18867;SDS011;9563;49.240;9.088;2022-11-20T07:47:01;12.37;;;6.00;;
18867;SDS011;9563;49.240;9.088;2022-11-20T07:49:28;11.00;;;6.30;;
18867;SDS011;9563;49.240;9.088;2022-11-20T07:51:55;11.33;;;5.37;;
18867;SDS011;9563;49.240;9.088;2022-11-20T07:54:22;11.20;;;5.83;;
18867;SDS011;9563;49.240;9.088;2022-11-20T07:56:49;10.20;;;6.27;;
18867;SDS011;9563;49.240;9.088;2022-11-20T07:59:16;9.03;;;5.50;;
18867;SDS011;9563;49.240;9.088;2022-11-20T08:01:43;10.33;;;5.33;;
18867;SDS011;9563;49.240;9.088;2022-11-20T08:04:12;9.63;;;5.53;;
18867;SDS011;9563;49.240;9.088;2022-11-20T08:06:41;8.03;;;5.47;;
18867;SDS011;9563;49.240;9.088;2022-11-20T08:09:07;12.30;;;5.60;;
18867;SDS011;9563;49.240;9.088;2022-11-20T08:11:35;8.20;;;4.93;;
18867;SDS011;9563;49.240;9.088;2022-11-20T08:14:19;10.43;;;4.70;;
18867;SDS011;9563;49.240;9.088;2022-11-20T08:16:47;7.97;;;4.83;;
18867;SDS011;9563;49.240;9.088;2022-11-20T08:19:17;8.67;;;5.47;;
18867;SDS011;9563;49.240;9.088;2022-11-20T08:21:44;10.60;;;5.00;;
18867;SDS011;9563;49.240;9.088;2022-11-20T08:24:12;11.00;;;5.10;;
18867;SDS011;9563;49.240;9.088;2022-11-20T08:26:39;9.77;;;6.13;;
18867;SDS011;9563;49.240;9.088;2022-11-20T08:29:06;11.37;;;5.83;;
18867;SDS011;9563;49.240;9.088;2022-11-20T08:31:34;10.73;;;5.37;;
18867;SDS011;9563;49.240;9.088;2022-11-20T08:34:01;8.87;;;5.27;;
18867;SDS011;9563;49.240;9.088;2022-11-20T08:36:32;9.57;;;5.27;;
18867;SDS011;9563;49.240;9.088;2022-11-20T08:38:59;12.57;;;5.30;;
18867;SDS011;9563;49.240;9.088;2022-11-20T08:41:26;9.70;;;5.23;;
18867;SDS011;9563;49.240;9.088;2022-11-20T08:43:56;8.20;;;5.43;;
18867;SDS011;9563;49.240;9.088;2022-11-20T08:46:25;6.77;;;4.50;;
18867;SDS011;9563;49.240;9.088;2022-11-20T08:48:53;9.20;;;5.40;;
18867;SDS011;9563;49.240;9.088;2022-11-20T08:51:20;9.13;;;4.80;;
18867;SDS011;9563;49.240;9.088;2022-11-20T08:53:49;11.37;;;5.40;;
18867;SDS011;9563;49.240;9.088;2022-11-20T08:56:16;9.57;;;6.23;;
18867;SDS011;9563;49.240;9.088;2022-11-20T08:58:43;8.27;;;5.50;;
18867;SDS011;9563;49.240;9.088;2022-11-20T09:01:11;10.00;;;6.63;;
18867;SDS011;9563;49.240;9.088;2022-11-20T09:03:37;13.17;;;7.93;;
18867;SDS011;9563;49.240;9.088;2022-11-20T09:06:05;8.60;;;4.53;;
18867;SDS011;9563;49.240;9.088;2022-11-20T09:08:33;8.60;;;4.30;;
18867;SDS011;9563;49.240;9.088;2022-11-20T09:11:03;6.90;;;4.17;;
18867;SDS011;9563;49.240;9.088;2022-11-20T09:13:31;6.97;;;4.20;;
18867;SDS011;9563;49.240;9.088;2022-11-20T09:16:00;5.53;;;3.97;;
18867;SDS011;9563;49.240;9.088;2022-11-20T09:18:28;9.07;;;4.13;;
18867;SDS011;9563;49.240;9.088;2022-11-20T09:20:57;6.03;;;3.90;;
18867;SDS011;9563;49.240;9.088;2022-11-20T09:23:25;10.27;;;3.90;;
18867;SDS011;9563;49.240;9.088;2022-11-20T09:25:52;7.77;;;4.40;;
18867;SDS011;9563;49.240;9.088;2022-11-20T09:28:23;8.00;;;4.40;;
18867;SDS011;9563;49.240;9.088;2022-11-20T09:30:50;11.40;;;4.63;;
18867;SDS011;9563;49.240;9.088;2022-11-20T09:33:17;7.50;;;5.00;;
18867;SDS011;9563;49.240;9.088;2022-11-20T09:35:44;7.73;;;4.47;;
18867;SDS011;9563;49.240;9.088;2022-11-20T09:38:11;7.73;;;4.53;;
18867;SDS011;9563;49.240;9.088;2022-11-20T09:40:39;7.87;;;4.57;;
18867;SDS011;9563;49.240;9.088;2022-11-20T09:43:12;9.40;;;5.63;;
18867;SDS011;9563;49.240;9.088;2022-11-20T09:45:50;9.63;;;6.20;;
18867;SDS011;9563;49.240;9.088;2022-11-20T09:48:36;10.50;;;5.83;;
18867;SDS011;9563;49.240;9.088;2022-11-20T09:51:14;11.90;;;6.30;;
18867;SDS011;9563;49.240;9.088;2022-11-20T09:53:53;8.80;;;5.73;;
18867;SDS011;9563;49.240;9.088;2022-11-20T09:56:33;9.27;;;5.57;;
18867;SDS011;9563;49.240;9.088;2022-11-20T09:59:02;12.07;;;6.00;;
18867;SDS011;9563;49.240;9.088;2022-11-20T10:01:33;12.80;;;5.57;;
18867;SDS011;9563;49.240;9.088;2022-11-20T10:04:06;9.77;;;5.27;;
18867;SDS011;9563;49.240;9.088;2022-11-20T10:06:41;10.17;;;5.77;;
18867;SDS011;9563;49.240;9.088;2022-11-20T10:09:16;12.40;;;5.87;;
18867;SDS011;9563;49.240;9.088;2022-11-20T10:11:53;9.23;;;5.03;;
18867;SDS011;9563;49.240;9.088;2022-11-20T10:14:33;8.37;;;5.00;;
18867;SDS011;9563;49.240;9.088;2022-11-20T10:17:12;8.77;;;4.67;;
18867;SDS011;9563;49.240;9.088;2022-11-20T10:19:54;8.37;;;4.70;;
18867;SDS011;9563;49.240;9.088;2022-11-20T10:22:32;7.60;;;4.47;;
18867;SDS011;9563;49.240;9.088;2022-11-20T10:25:11;7.80;;;4.67;;
18867;SDS011;9563;49.240;9.088;2022-11-20T10:27:48;6.60;;;4.10;;
18867;SDS011;9563;49.240;9.088;2022-11-20T10:30:28;6.73;;;3.67;;
18867;SDS011;9563;49.240;9.088;2022-11-20T10:32:58;7.40;;;4.37;;
18867;SDS011;9563;49.240;9.088;2022-11-20T10:35:32;7.23;;;4.07;;
18867;SDS011;9563;49.240;9.088;2022-11-20T10:38:03;6.17;;;3.80;;
18867;SDS011;9563;49.240;9.088;2022-11-20T10:40:37;6.47;;;3.87;;
18867;SDS011;9563;49.240;9.088;2022-11-20T10:43:08;11.90;;;5.80;;
18867;SDS011;9563;49.240;9.088;2022-11-20T10:45:48;6.03;;;4.37;;
18867;SDS011;9563;49.240;9.088;2022-11-20T10:48:22;6.53;;;3.40;;
18867;SDS011;9563;49.240;9.088;2022-11-20T10:51:05;7.60;;;3.63;;
18867;SDS011;9563;49.240;9.088;2022-11-20T10:53:47;7.20;;;3.93;;
18867;SDS011;9563;49.240;9.088;2022-11-20T10:56:22;6.27;;;4.00;;
18867;SDS011;9563;49.240;9.088;2022-11-20T10:59:02;5.17;;;3.73;;
18867;SDS011;9563;49.240;9.088;2022-11-20T11:01:39;7.07;;;4.23;;
18867;SDS011;9563;49.240;9.088;2022-11-20T11:04:14;6.17;;;3.97;;
18867;SDS011;9563;49.240;9.088;2022-11-20T11:06:56;8.30;;;3.40;;
18867;SDS011;9563;49.240;9.088;2022-11-20T11:09:32;5.77;;;2.93;;
18867;SDS011;9563;49.240;9.088;2022-11-20T11:12:01;5.70;;;3.03;;
18867;SDS011;9563;49.240;9.088;2022-11-20T11:14:41;3.93;;;2.43;;
18867;SDS011;9563;49.240;9.088;2022-11-20T11:17:18;4.90;;;3.20;;
18867;SDS011;9563;49.240;9.088;2022-11-20T11:22:52;7.20;;;4.43;;
18867;SDS011;9563;49.240;9.088;2022-11-20T11:25:22;10.10;;;5.77;;
18867;SDS011;9563;49.240;9.088;2022-11-20T11:27:53;5.17;;;3.53;;
18867;SDS011;9563;49.240;9.088;2022-11-20T11:30:23;9.60;;;4.67;;
18867;SDS011;9563;49.240;9.088;2022-11-20T11:33:02;6.70;;;4.00;;
18867;SDS011;9563;49.240;9.088;2022-11-20T11:35:32;7.83;;;4.20;;
18867;SDS011;9563;49.240;9.088;2022-11-20T11:38:03;6.30;;;4.23;;
18867;SDS011;9563;49.240;9.088;2022-11-20T11:40:33;10.37;;;6.23;;
18867;SDS011;9563;49.240;9.088;2022-11-20T11:43:02;7.93;;;4.90;;
18867;SDS011;9563;49.240;9.088;2022-11-20T11:45:52;8.30;;;5.03;;
18867;SDS011;9563;49.240;9.088;2022-11-20T11:48:19;8.07;;;4.43;;
18867;SDS011;9563;49.240;9.088;2022-11-20T11:50:49;6.97;;;4.03;;
18867;SDS011;9563;49.240;9.088;2022-11-20T11:53:17;7.73;;;4.20;;
18867;SDS011;9563;49.240;9.088;2022-11-20T11:55:47;10.30;;;3.80;;
18867;SDS011;9563;49.240;9.088;2022-11-20T11:58:24;8.30;;;4.10;;
18867;SDS011;9563;49.240;9.088;2022-11-20T12:01:02;10.80;;;5.00;;
18867;SDS011;9563;49.240;9.088;2022-11-20T12:03:34;9.90;;;3.80;;
18867;SDS011;9563;49.240;9.088;2022-11-20T12:06:06;9.60;;;3.60;;
18867;SDS011;9563;49.240;9.088;2022-11-20T12:08:40;7.70;;;4.17;;
18867;SDS011;9563;49.240;9.088;2022-11-20T12:11:12;11.23;;;4.03;;
18867;SDS011;9563;49.240;9.088;2022-11-20T12:13:44;11.70;;;4.57;;
18867;SDS011;9563;49.240;9.088;2022-11-20T12:16:17;11.60;;;4.23;;
18867;SDS011;9563;49.240;9.088;2022-11-20T12:18:47;13.83;;;3.50;;
18867;SDS011;9563;49.240;9.088;2022-11-20T12:21:23;6.93;;;3.30;;
18867;SDS011;9563;49.240;9.088;2022-11-20T12:24:06;8.37;;;3.50;;
18867;SDS011;9563;49.240;9.088;2022-11-20T12:26:48;7.00;;;2.83;;
18867;SDS011;9563;49.240;9.088;2022-11-20T12:29:28;6.20;;;2.50;;
18867;SDS011;9563;49.240;9.088;2022-11-20T12:35:10;4.20;;;2.20;;
18867;SDS011;9563;49.240;9.088;2022-11-20T12:37:54;6.97;;;2.37;;
18867;SDS011;9563;49.240;9.088;2022-11-20T12:40:35;6.07;;;2.07;;
18867;SDS011;9563;49.240;9.088;2022-11-20T12:43:15;5.53;;;2.20;;
18867;SDS011;9563;49.240;9.088;2022-11-20T12:46:12;6.10;;;2.37;;
18867;SDS011;9563;49.240;9.088;2022-11-20T12:48:52;4.43;;;2.00;;
18867;SDS011;9563;49.240;9.088;2022-11-20T12:57:41;9.23;;;2.40;;
18867;SDS011;9563;49.240;9.088;2022-11-20T13:00:16;8.57;;;1.87;;
18867;SDS011;9563;49.240;9.088;2022-11-20T13:05:46;6.53;;;2.13;;
18867;SDS011;9563;49.240;9.088;2022-11-20T13:08:20;4.67;;;1.60;;
18867;SDS011;9563;49.240;9.088;2022-11-20T13:10:51;6.63;;;2.10;;
18867;SDS011;9563;49.240;9.088;2022-11-20T13:13:26;8.77;;;1.97;;
18867;SDS011;9563;49.240;9.088;2022-11-20T13:16:01;4.90;;;1.83;;
18867;SDS011;9563;49.240;9.088;2022-11-20T13:18:34;6.07;;;2.03;;
18867;SDS011;9563;49.240;9.088;2022-11-20T13:21:13;4.03;;;1.90;;
18867;SDS011;9563;49.240;9.088;2022-11-20T13:23:44;6.77;;;1.83;;
18867;SDS011;9563;49.240;9.088;2022-11-20T13:26:17;7.43;;;1.60;;
18867;SDS011;9563;49.240;9.088;2022-11-20T13:28:46;6.13;;;1.70;;
18867;SDS011;9563;49.240;9.088;2022-11-20T13:31:29;7.50;;;2.07;;
18867;SDS011;9563;49.240;9.088;2022-11-20T13:33:59;8.67;;;2.00;;
18867;SDS011;9563;49.240;9.088;2022-11-20T13:36:28;9.63;;;1.70;;
18867;SDS011;9563;49.240;9.088;2022-11-20T13:38:57;4.17;;;1.50;;
18867;SDS011;9563;49.240;9.088;2022-11-20T13:41:27;6.07;;;1.70;;
18867;SDS011;9563;49.240;9.088;2022-11-20T13:44:04;2.63;;;1.33;;
18867;SDS011;9563;49.240;9.088;2022-11-20T13:46:37;6.27;;;1.90;;
18867;SDS011;9563;49.240;9.088;2022-11-20T13:49:09;3.23;;;1.40;;
18867;SDS011;9563;49.240;9.088;2022-11-20T13:51:43;6.00;;;2.30;;
18867;SDS011;9563;49.240;9.088;2022-11-20T13:54:24;7.03;;;1.73;;
18867;SDS011;9563;49.240;9.088;2022-11-20T14:00:13;2.20;;;1.40;;
18867;SDS011;9563;49.240;9.088;2022-11-20T14:02:41;4.47;;;1.10;;
18867;SDS011;9563;49.240;9.088;2022-11-20T14:05:16;5.20;;;1.73;;
18867;SDS011;9563;49.240;9.088;2022-11-20T14:07:47;6.33;;;1.80;;
18867;SDS011;9563;49.240;9.088;2022-11-20T14:10:22;6.37;;;1.77;;
18867;SDS011;9563;49.240;9.088;2022-11-20T14:12:52;4.13;;;1.73;;
18867;SDS011;9563;49.240;9.088;2022-11-20T14:15:26;6.70;;;1.90;;
18867;SDS011;9563;49.240;9.088;2022-11-20T14:17:55;5.73;;;1.43;;
18867;SDS011;9563;49.240;9.088;2022-11-20T14:20:23;4.37;;;1.20;;
18867;SDS011;9563;49.240;9.088;2022-11-20T14:22:53;3.97;;;1.53;;
18867;SDS011;9563;49.240;9.088;2022-11-20T14:25:21;9.43;;;2.07;;
18867;SDS011;9563;49.240;9.088;2022-11-20T14:27:54;8.87;;;1.93;;
18867;SDS011;9563;49.240;9.088;2022-11-20T14:30:24;3.30;;;1.00;;
18867;SDS011;9563;49.240;9.088;2022-11-20T14:32:53;3.93;;;1.30;;
18867;SDS011;9563;49.240;9.088;2022-11-20T14:35:23;5.40;;;1.33;;
18867;SDS011;9563;49.240;9.088;2022-11-20T14:37:51;4.10;;;1.20;;
18867;SDS011;9563;49.240;9.088;2022-11-20T14:40:22;9.93;;;1.40;;
18867;SDS011;9563;49.240;9.088;2022-11-20T14:42:54;2.03;;;1.00;;
18867;SDS011;9563;49.240;9.088;2022-11-20T14:45:21;3.17;;;0.80;;
18867;SDS011;9563;49.240;9.088;2022-11-20T14:47:50;3.47;;;1.00;;
18867;SDS011;9563;49.240;9.088;2022-11-20T14:50:19;4.63;;;1.00;;
18867;SDS011;9563;49.240;9.088;2022-11-20T14:52:50;3.27;;;0.97;;
18867;SDS011;9563;49.240;9.088;2022-11-20T14:55:25;2.37;;;1.13;;
18867;SDS011;9563;49.240;9.088;2022-11-20T14:57:58;2.97;;;0.80;;
18867;SDS011;9563;49.240;9.088;2022-11-20T15:00:27;3.70;;;0.97;;
18867;SDS011;9563;49.240;9.088;2022-11-20T15:02:54;1.70;;;0.80;;
18867;SDS011;9563;49.240;9.088;2022-11-20T15:05:22;1.63;;;0.70;;
18867;SDS011;9563;49.240;9.088;2022-11-20T15:07:52;7.33;;;1.10;;
18867;SDS011;9563;49.240;9.088;2022-11-20T15:10:32;4.80;;;1.10;;
18867;SDS011;9563;49.240;9.088;2022-11-20T15:13:02;5.70;;;1.30;;
18867;SDS011;9563;49.240;9.088;2022-11-20T15:15:32;4.90;;;1.00;;
18867;SDS011;9563;49.240;9.088;2022-11-20T15:18:03;3.23;;;1.00;;
18867;SDS011;9563;49.240;9.088;2022-11-20T15:20:31;2.07;;;1.20;;
18867;SDS011;9563;49.240;9.088;2022-11-20T15:22:59;3.90;;;1.00;;
18867;SDS011;9563;49.240;9.088;2022-11-20T15:25:26;5.73;;;1.10;;
18867;SDS011;9563;49.240;9.088;2022-11-20T15:27:55;3.80;;;0.80;;
18867;SDS011;9563;49.240;9.088;2022-11-20T15:30:24;8.47;;;1.37;;